createdAt,value
2017-08-04T00:00:16.413Z,19.02
2017-08-04T00:01:26.914Z,18.95
2017-08-04T00:02:37.098Z,18.94
2017-08-04T00:03:48.056Z,18.97
2017-08-04T00:04:58.523Z,18.97
2017-08-04T00:06:08.683Z,18.94
2017-08-04T00:07:19.206Z,18.97
2017-08-04T00:08:29.664Z,18.97
2017-08-04T00:09:40.443Z,18.98
2017-08-04T00:10:50.642Z,18.97
2017-08-04T00:12:01.210Z,18.97
2017-08-04T00:13:11.681Z,19.02
2017-08-04T00:14:22.156Z,18.94
2017-08-04T00:15:33.180Z,18.94
2017-08-04T00:16:43.642Z,18.97
2017-08-04T00:17:54.132Z,18.94
2017-08-04T00:19:04.600Z,18.95
2017-08-04T00:20:14.610Z,19.02
2017-08-04T00:21:25.310Z,18.95
2017-08-04T00:22:35.786Z,18.98
2017-08-04T00:23:46.481Z,18.93
2017-08-04T00:24:56.974Z,18.97
2017-08-04T00:26:07.462Z,19.05
2017-08-04T00:27:18.364Z,19
2017-08-04T00:28:28.829Z,18.98
2017-08-04T00:29:39.337Z,19.08
2017-08-04T00:30:49.870Z,19.03
2017-08-04T00:32:00.337Z,18.95
2017-08-04T00:33:10.782Z,18.94
2017-08-04T00:34:20.866Z,19
2017-08-04T00:35:31.014Z,19.05
2017-08-04T00:36:41.690Z,19.02
2017-08-04T00:37:52.256Z,19
2017-08-04T00:39:03.005Z,19.06
2017-08-04T00:40:13.472Z,19.08
2017-08-04T00:41:23.620Z,19
2017-08-04T00:42:34.091Z,19.03
2017-08-04T00:43:44.558Z,18.94
2017-08-04T00:44:55.246Z,19.02
2017-08-04T00:46:05.729Z,18.98
2017-08-04T00:47:15.928Z,19.08
2017-08-04T00:48:26.435Z,19.08
2017-08-04T00:49:36.922Z,19
2017-08-04T00:50:47.733Z,19.1
2017-08-04T00:51:57.927Z,19.08
2017-08-04T00:53:08.377Z,19.09
2017-08-04T00:54:18.994Z,19.06
2017-08-04T00:55:29.451Z,19.06
2017-08-04T00:56:40.256Z,19.02
2017-08-04T00:57:50.722Z,19.03
2017-08-04T00:59:01.193Z,18.97
2017-08-04T01:00:11.215Z,18.98
2017-08-04T01:01:21.720Z,18.95
2017-08-04T01:02:32.482Z,19.03
2017-08-04T01:03:43.957Z,19
2017-08-04T01:04:54.452Z,18.97
2017-08-04T01:06:05.065Z,18.97
2017-08-04T01:07:15.549Z,18.95
2017-08-04T01:08:26.312Z,18.87
2017-08-04T01:09:36.761Z,18.88
2017-08-04T01:10:46.940Z,18.88
2017-08-04T01:11:57.396Z,18.87
2017-08-04T01:13:07.874Z,18.9
2017-08-04T01:14:18.582Z,18.84
2017-08-04T01:15:29.038Z,18.8
2017-08-04T01:16:39.501Z,18.82
2017-08-04T01:17:50.078Z,18.8
2017-08-04T01:19:00.633Z,18.78
2017-08-04T01:20:11.339Z,18.8
2017-08-04T01:21:21.866Z,18.72
2017-08-04T01:22:32.426Z,18.72
2017-08-04T01:23:42.889Z,18.67
2017-08-04T01:24:53.351Z,18.65
2017-08-04T01:26:04.078Z,18.73
2017-08-04T01:27:14.532Z,18.72
2017-08-04T01:28:24.688Z,18.72
2017-08-04T01:29:35.190Z,18.72
2017-08-04T01:30:45.686Z,18.65
2017-08-04T01:31:56.204Z,18.56
2017-08-04T01:33:06.690Z,18.6
2017-08-04T01:34:17.244Z,18.59
2017-08-04T01:35:27.710Z,18.55
2017-08-04T01:36:37.905Z,18.56
2017-08-04T01:37:48.339Z,18.47
2017-08-04T01:38:58.846Z,18.55
2017-08-04T01:40:09.330Z,18.46
2017-08-04T01:41:19.792Z,18.47
2017-08-04T01:42:30.306Z,18.5
2017-08-04T01:43:41.016Z,18.5
2017-08-04T01:44:51.509Z,18.46
2017-08-04T01:46:01.963Z,18.47
2017-08-04T01:47:12.444Z,18.34
2017-08-04T01:48:22.910Z,18.31
2017-08-04T01:49:33.652Z,18.42
2017-08-04T01:50:44.463Z,18.4
2017-08-04T01:51:54.916Z,18.41
2017-08-04T01:53:05.375Z,18.4
2017-08-04T01:54:15.974Z,18.31
2017-08-04T01:55:26.722Z,18.44
2017-08-04T01:56:37.337Z,18.4
2017-08-04T01:57:47.809Z,18.37
2017-08-04T01:58:58.340Z,18.47
2017-08-04T02:00:09.105Z,18.44
2017-08-04T02:01:19.845Z,18.41
2017-08-04T02:02:30.340Z,18.46
2017-08-04T02:03:40.905Z,18.32
2017-08-04T02:04:50.626Z,18.4
2017-08-04T02:06:01.085Z,18.28
2017-08-04T02:07:11.826Z,18.34
2017-08-04T02:08:22.295Z,18.38
2017-08-04T02:09:32.356Z,18.34
2017-08-04T02:10:42.922Z,18.37
2017-08-04T02:11:53.416Z,18.41
2017-08-04T02:13:04.148Z,18.37
2017-08-04T02:14:14.610Z,18.4
2017-08-04T02:15:25.091Z,18.3
2017-08-04T02:16:35.596Z,18.41
2017-08-04T02:17:46.105Z,18.32
2017-08-04T02:18:56.859Z,18.4
2017-08-04T02:20:07.346Z,18.4
2017-08-04T02:21:17.835Z,18.41
2017-08-04T02:22:28.430Z,18.42
2017-08-04T02:23:38.565Z,18.41
2017-08-04T02:24:49.384Z,18.42
2017-08-04T02:25:59.883Z,18.44
2017-08-04T02:27:10.353Z,18.42
2017-08-04T02:28:20.801Z,18.46
2017-08-04T02:29:31.280Z,18.34
2017-08-04T02:30:41.990Z,18.49
2017-08-04T02:31:52.573Z,18.41
2017-08-04T02:33:03.262Z,18.44
2017-08-04T02:34:13.727Z,18.44
2017-08-04T02:35:24.199Z,18.46
2017-08-04T02:36:34.935Z,18.38
2017-08-04T02:37:45.122Z,18.37
2017-08-04T02:38:55.604Z,18.41
2017-08-04T02:40:06.105Z,18.35
2017-08-04T02:41:16.599Z,18.4
2017-08-04T02:42:27.311Z,18.47
2017-08-04T02:43:37.812Z,18.47
2017-08-04T02:44:48.371Z,18.37
2017-08-04T02:45:58.851Z,18.38
2017-08-04T02:47:09.341Z,18.44
2017-08-04T02:48:20.090Z,18.44
2017-08-04T02:49:30.574Z,18.47
2017-08-04T02:50:41.116Z,18.41
2017-08-04T02:51:51.590Z,18.46
2017-08-04T02:53:02.232Z,18.37
2017-08-04T02:54:12.701Z,18.49
2017-08-04T02:55:23.160Z,18.46
2017-08-04T02:56:33.633Z,18.3
2017-08-04T02:57:43.830Z,18.42
2017-08-04T02:58:53.862Z,18.31
2017-08-04T03:00:04.631Z,18.32
2017-08-04T03:01:15.099Z,18.32
2017-08-04T03:02:25.567Z,18.41
2017-08-04T03:03:36.129Z,18.41
2017-08-04T03:04:46.609Z,18.49
2017-08-04T03:05:57.337Z,18.41
2017-08-04T03:07:07.816Z,18.38
2017-08-04T03:08:18.393Z,18.44
2017-08-04T03:09:28.561Z,18.4
2017-08-04T03:10:39.085Z,18.44
2017-08-04T03:11:49.808Z,18.37
2017-08-04T03:13:00.304Z,18.46
2017-08-04T03:14:10.757Z,18.38
2017-08-04T03:15:21.272Z,18.41
2017-08-04T03:16:31.772Z,18.46
2017-08-04T03:17:42.516Z,18.46
2017-08-04T03:18:52.694Z,18.46
2017-08-04T03:20:03.153Z,18.4
2017-08-04T03:21:13.700Z,18.4
2017-08-04T03:22:24.272Z,18.4
2017-08-04T03:23:35.044Z,18.32
2017-08-04T03:24:45.485Z,18.34
2017-08-04T03:25:55.948Z,18.4
2017-08-04T03:27:06.455Z,18.38
2017-08-04T03:28:16.992Z,18.38
2017-08-04T03:29:27.695Z,18.34
2017-08-04T03:30:38.279Z,18.28
2017-08-04T03:31:48.730Z,18.3
2017-08-04T03:32:59.228Z,18.25
2017-08-04T03:34:09.688Z,18.34
2017-08-04T03:35:20.407Z,18.25
2017-08-04T03:36:30.954Z,18.15
2017-08-04T03:37:41.420Z,18.19
2017-08-04T03:38:51.891Z,18.22
2017-08-04T03:40:02.403Z,18.12
2017-08-04T03:41:13.149Z,18.1
2017-08-04T03:42:23.676Z,18.19
2017-08-04T03:43:34.380Z,18.09
2017-08-04T03:44:44.843Z,18.09
2017-08-04T03:45:55.317Z,18.16
2017-08-04T03:47:06.038Z,18.12
2017-08-04T03:48:16.505Z,18.09
2017-08-04T03:49:26.954Z,18.15
2017-08-04T03:50:37.422Z,18.09
2017-08-04T03:51:47.903Z,18.12
2017-08-04T03:52:58.614Z,18.13
2017-08-04T03:54:08.753Z,18.17
2017-08-04T03:55:19.213Z,18.13
2017-08-04T03:56:29.699Z,18.1
2017-08-04T03:57:40.025Z,18.1
2017-08-04T03:58:50.783Z,18.13
2017-08-04T04:00:01.244Z,18.16
2017-08-04T04:01:11.731Z,18.09
2017-08-04T04:02:22.279Z,18.13
2017-08-04T04:03:32.828Z,18.12
2017-08-04T04:04:43.571Z,18.04
2017-08-04T04:05:53.714Z,18.09
2017-08-04T04:07:04.228Z,18.05
2017-08-04T04:08:14.789Z,18.07
2017-08-04T04:09:25.324Z,18.1
2017-08-04T04:10:36.053Z,18.13
2017-08-04T04:11:46.543Z,18.13
2017-08-04T04:12:56.705Z,18.19
2017-08-04T04:14:07.244Z,18.15
2017-08-04T04:15:17.746Z,18.15
2017-08-04T04:16:28.467Z,18.15
2017-08-04T04:17:39.087Z,18.15
2017-08-04T04:18:49.761Z,18.13
2017-08-04T04:20:00.335Z,18.2
2017-08-04T04:21:10.541Z,18.05
2017-08-04T04:22:21.295Z,18.12
2017-08-04T04:23:31.854Z,18.13
2017-08-04T04:24:42.310Z,18.15
2017-08-04T04:25:52.962Z,18.22
2017-08-04T04:27:03.136Z,18.3
2017-08-04T04:28:13.547Z,18.23
2017-08-04T04:29:24.120Z,18.26
2017-08-04T04:30:34.661Z,18.28
2017-08-04T04:31:44.812Z,18.25
2017-08-04T04:32:55.272Z,18.37
2017-08-04T04:34:06.000Z,18.37
2017-08-04T04:35:16.454Z,18.37
2017-08-04T04:36:26.908Z,18.35
2017-08-04T04:37:37.359Z,18.26
2017-08-04T04:38:47.530Z,18.23
2017-08-04T04:39:58.503Z,18.28
2017-08-04T04:41:08.977Z,18.31
2017-08-04T04:42:19.535Z,18.23
2017-08-04T04:43:29.993Z,18.32
2017-08-04T04:44:40.721Z,18.23
2017-08-04T04:45:51.494Z,18.16
2017-08-04T04:47:01.997Z,18.15
2017-08-04T04:48:12.489Z,18.12
2017-08-04T04:49:22.926Z,18.05
2017-08-04T04:50:33.419Z,18.04
2017-08-04T04:51:43.819Z,18.04
2017-08-04T04:52:54.305Z,17.97
2017-08-04T04:54:04.768Z,17.94
2017-08-04T04:55:15.306Z,17.94
2017-08-04T04:56:25.775Z,17.95
2017-08-04T04:57:36.638Z,18.04
2017-08-04T04:58:47.166Z,17.92
2017-08-04T04:59:57.857Z,18.01
2017-08-04T05:01:08.323Z,18.05
2017-08-04T05:02:18.824Z,18.09
2017-08-04T05:03:29.607Z,18.12
2017-08-04T05:04:40.135Z,18.12
2017-08-04T05:05:50.850Z,18.12
2017-08-04T05:07:01.292Z,18.12
2017-08-04T05:08:11.742Z,18.09
2017-08-04T05:09:22.497Z,18.15
2017-08-04T05:10:32.655Z,18.19
2017-08-04T05:11:42.833Z,18.25
2017-08-04T05:12:53.307Z,18.28
2017-08-04T05:14:03.772Z,18.22
2017-08-04T05:15:14.481Z,18.23
2017-08-04T05:16:24.975Z,18.28
2017-08-04T05:17:35.480Z,18.4
2017-08-04T05:18:46.019Z,18.31
2017-08-04T05:19:56.512Z,18.4
2017-08-04T05:21:07.258Z,18.44
2017-08-04T05:22:17.801Z,18.37
2017-08-04T05:23:28.279Z,18.41
2017-08-04T05:24:38.779Z,18.44
2017-08-04T05:25:49.272Z,18.4
2017-08-04T05:27:00.085Z,18.52
2017-08-04T05:28:10.727Z,18.59
2017-08-04T05:29:21.242Z,18.6
2017-08-04T05:30:31.726Z,18.65
2017-08-04T05:31:41.792Z,18.65
2017-08-04T05:32:52.570Z,18.79
2017-08-04T05:34:03.048Z,18.87
2017-08-04T05:35:13.522Z,18.8
2017-08-04T05:36:24.238Z,18.87
2017-08-04T05:37:34.714Z,18.93
2017-08-04T05:38:45.429Z,18.98
2017-08-04T05:39:55.934Z,19.12
2017-08-04T05:41:06.519Z,19.19
2017-08-04T05:42:17.021Z,19.12
2017-08-04T05:43:28.466Z,19.12
2017-08-04T05:44:40.196Z,19.23
2017-08-04T05:45:51.656Z,19.15
2017-08-04T05:47:01.688Z,19.16
2017-08-04T05:48:12.201Z,19.23
2017-08-04T05:49:22.725Z,19.27
2017-08-04T05:50:33.442Z,19.25
2017-08-04T05:51:43.952Z,19.34
2017-08-04T05:52:54.432Z,19.37
2017-08-04T05:54:04.944Z,19.37
2017-08-04T05:55:15.483Z,19.3
2017-08-04T05:56:26.361Z,19.34
2017-08-04T05:57:36.889Z,19.35
2017-08-04T05:58:47.475Z,19.4
2017-08-04T05:59:57.925Z,19.34
2017-08-04T06:01:08.395Z,19.39
2017-08-04T06:02:19.125Z,19.35
2017-08-04T06:03:29.583Z,19.3
2017-08-04T06:04:40.046Z,19.35
2017-08-04T06:05:50.536Z,19.34
2017-08-04T06:07:00.997Z,19.35
2017-08-04T06:08:11.721Z,19.37
2017-08-04T06:09:22.248Z,19.37
2017-08-04T06:10:32.761Z,19.31
2017-08-04T06:11:43.239Z,19.33
2017-08-04T06:12:53.704Z,19.37
2017-08-04T06:14:04.428Z,19.35
2017-08-04T06:15:15.034Z,19.4
2017-08-04T06:16:25.229Z,19.39
2017-08-04T06:17:35.765Z,19.39
2017-08-04T06:18:46.229Z,19.34
2017-08-04T06:19:57.074Z,19.43
2017-08-04T06:21:07.474Z,19.46
2017-08-04T06:22:17.997Z,19.5
2017-08-04T06:23:28.529Z,19.61
2017-08-04T06:24:39.313Z,19.61
2017-08-04T06:25:50.074Z,19.67
2017-08-04T06:27:00.588Z,19.6
2017-08-04T06:28:11.163Z,19.73
2017-08-04T06:29:21.666Z,19.74
2017-08-04T06:30:32.244Z,19.79
2017-08-04T06:31:42.959Z,19.85
2017-08-04T06:32:53.445Z,19.82
2017-08-04T06:34:04.071Z,19.92
2017-08-04T06:35:14.635Z,19.93
2017-08-04T06:36:25.096Z,19.93
2017-08-04T06:37:35.852Z,19.98
2017-08-04T06:38:46.026Z,19.93
2017-08-04T06:39:56.529Z,20.03
2017-08-04T06:41:07.115Z,20.08
2017-08-04T06:42:17.592Z,20.11
2017-08-04T06:43:28.351Z,20.2
2017-08-04T06:44:38.840Z,20.24
2017-08-04T06:45:49.422Z,20.23
2017-08-04T06:46:59.876Z,20.35
2017-08-04T06:48:10.497Z,20.35
2017-08-04T06:49:21.658Z,20.39
2017-08-04T06:50:32.125Z,20.53
2017-08-04T06:51:42.622Z,20.57
2017-08-04T06:52:53.174Z,20.61
2017-08-04T06:54:03.649Z,20.76
2017-08-04T06:55:14.533Z,20.82
2017-08-04T06:56:25.265Z,20.82
2017-08-04T06:57:35.746Z,20.78
2017-08-04T06:58:46.276Z,20.75
2017-08-04T06:59:56.776Z,20.78
2017-08-04T07:01:07.514Z,20.75
2017-08-04T07:02:18.075Z,20.64
2017-08-04T07:03:28.564Z,20.6
2017-08-04T07:04:39.016Z,20.6
2017-08-04T07:05:49.604Z,20.64
2017-08-04T07:07:00.344Z,20.78
2017-08-04T07:08:10.839Z,20.88
2017-08-04T07:09:21.333Z,20.83
2017-08-04T07:10:31.800Z,20.94
2017-08-04T07:11:42.299Z,21.04
2017-08-04T07:12:53.111Z,21.13
2017-08-04T07:14:03.367Z,21.18
2017-08-04T07:15:13.867Z,21.31
2017-08-04T07:16:24.341Z,21.4
2017-08-04T07:17:34.830Z,21.41
2017-08-04T07:18:45.569Z,21.49
2017-08-04T07:19:56.421Z,21.54
2017-08-04T07:21:06.906Z,21.54
2017-08-04T07:22:17.403Z,21.56
2017-08-04T07:23:27.886Z,21.68
2017-08-04T07:24:38.637Z,21.76
2017-08-04T07:25:49.575Z,21.84
2017-08-04T07:27:00.051Z,21.84
2017-08-04T07:28:10.873Z,21.86
2017-08-04T07:29:21.563Z,21.87
2017-08-04T07:30:32.376Z,21.86
2017-08-04T07:31:42.547Z,21.98
2017-08-04T07:32:53.292Z,22.02
2017-08-04T07:34:03.758Z,22.08
2017-08-04T07:35:14.223Z,22.2
2017-08-04T07:36:24.962Z,22.23
2017-08-04T07:37:35.428Z,22.3
2017-08-04T07:38:45.925Z,22.43
2017-08-04T07:39:56.451Z,22.45
2017-08-04T07:41:06.935Z,22.46
2017-08-04T07:42:17.692Z,22.45
2017-08-04T07:43:27.715Z,22.4
2017-08-04T07:44:38.351Z,22.39
2017-08-04T07:45:48.871Z,22.33
2017-08-04T07:46:59.405Z,22.33
2017-08-04T07:48:10.353Z,22.33
2017-08-04T07:49:21.062Z,22.43
2017-08-04T07:50:31.679Z,22.55
2017-08-04T07:51:41.946Z,22.65
2017-08-04T07:52:52.409Z,22.64
2017-08-04T07:54:03.192Z,22.71
2017-08-04T07:55:13.702Z,22.86
2017-08-04T07:56:24.163Z,22.9
2017-08-04T07:57:34.684Z,23.02
2017-08-04T07:58:45.364Z,22.98
2017-08-04T07:59:56.141Z,23.02
2017-08-04T08:01:06.668Z,23.14
2017-08-04T08:02:18.146Z,23.16
2017-08-04T08:03:28.875Z,23.06
2017-08-04T08:04:39.365Z,23.14
2017-08-04T08:05:49.981Z,23.03
2017-08-04T08:07:00.462Z,23.16
2017-08-04T08:08:10.937Z,23.02
2017-08-04T08:09:21.454Z,23.08
2017-08-04T08:10:31.920Z,23.09
2017-08-04T08:11:42.755Z,23.09
2017-08-04T08:12:53.290Z,23.06
2017-08-04T08:14:03.829Z,22.89
2017-08-04T08:15:14.318Z,22.82
2017-08-04T08:16:24.947Z,22.75
2017-08-04T08:17:35.965Z,22.85
2017-08-04T08:18:46.607Z,22.85
2017-08-04T08:19:57.104Z,22.75
2017-08-04T08:21:07.603Z,22.89
2017-08-04T08:22:18.076Z,22.89
2017-08-04T08:23:28.925Z,22.98
2017-08-04T08:24:39.449Z,23.16
2017-08-04T08:25:49.604Z,23.11
2017-08-04T08:27:00.294Z,23.2
2017-08-04T08:28:10.800Z,23.16
2017-08-04T08:29:21.718Z,23.24
2017-08-04T08:30:31.736Z,23.35
2017-08-04T08:31:42.231Z,23.55
2017-08-04T08:32:52.746Z,23.65
2017-08-04T08:34:02.789Z,23.69
2017-08-04T08:35:13.285Z,23.79
2017-08-04T08:36:23.462Z,23.79
2017-08-04T08:37:33.949Z,23.92
2017-08-04T08:38:44.521Z,23.92
2017-08-04T08:39:55.001Z,24.1
2017-08-04T08:41:05.845Z,24.15
2017-08-04T08:42:16.344Z,24.4
2017-08-04T08:43:26.863Z,24.7
2017-08-04T08:44:37.357Z,24.81
2017-08-04T08:45:47.831Z,24.82
2017-08-04T08:46:58.573Z,25.06
2017-08-04T08:48:09.212Z,25.25
2017-08-04T08:49:19.378Z,25.5
2017-08-04T08:50:29.905Z,25.66
2017-08-04T08:51:40.367Z,25.78
2017-08-04T08:52:50.886Z,25.78
2017-08-04T08:54:01.425Z,26.06
2017-08-04T08:55:11.931Z,26.21
2017-08-04T08:56:22.454Z,26.51
2017-08-04T08:57:32.947Z,26.96
2017-08-04T08:58:43.759Z,27.01
2017-08-04T08:59:54.343Z,27.05
2017-08-04T09:01:04.846Z,27.11
2017-08-04T09:02:15.364Z,27.67
2017-08-04T09:03:25.864Z,27.9
2017-08-04T09:04:36.590Z,28.14
2017-08-04T09:05:47.209Z,28.36
2017-08-04T09:06:57.754Z,28.24
2017-08-04T09:08:08.239Z,28.27
2017-08-04T09:09:18.772Z,28.49
2017-08-04T09:10:29.530Z,28.42
2017-08-04T09:11:39.738Z,28.46
2017-08-04T09:12:50.248Z,28.34
2017-08-04T09:14:00.766Z,28.01
2017-08-04T09:15:11.295Z,27.53
2017-08-04T09:16:22.024Z,27.26
2017-08-04T09:17:32.530Z,26.93
2017-08-04T09:18:43.045Z,26.7
2017-08-04T09:19:53.565Z,26.59
2017-08-04T09:21:04.181Z,26.46
2017-08-04T09:22:14.934Z,26.31
2017-08-04T09:23:25.125Z,26.27
2017-08-04T09:24:35.775Z,26.15
2017-08-04T09:25:46.278Z,25.96
2017-08-04T09:26:56.857Z,25.71
2017-08-04T09:28:07.706Z,25.64
2017-08-04T09:29:18.236Z,25.5
2017-08-04T09:30:28.740Z,25.56
2017-08-04T09:31:39.429Z,25.76
2017-08-04T09:32:49.678Z,25.71
2017-08-04T09:34:00.488Z,25.39
2017-08-04T09:35:10.972Z,25.09
2017-08-04T09:36:21.441Z,24.76
2017-08-04T09:37:32.024Z,24.48
2017-08-04T09:38:42.552Z,24.38
2017-08-04T09:39:53.406Z,24.19
2017-08-04T09:41:03.882Z,24.05
2017-08-04T09:42:14.360Z,24.02
2017-08-04T09:43:24.881Z,24.43
2017-08-04T09:44:35.450Z,24.8
2017-08-04T09:45:45.858Z,24.99
2017-08-04T09:46:56.356Z,25.13
2017-08-04T09:48:06.557Z,25.29
2017-08-04T09:49:17.069Z,25.39
2017-08-04T09:50:27.535Z,25.82
2017-08-04T09:51:38.291Z,26.02
2017-08-04T09:52:48.856Z,25.93
2017-08-04T09:53:59.525Z,25.9
2017-08-04T09:55:10.023Z,26.19
2017-08-04T09:56:20.218Z,26.49
2017-08-04T09:57:30.804Z,26.7
2017-08-04T09:58:41.389Z,26.75
2017-08-04T09:59:51.893Z,27.28
2017-08-04T10:01:02.517Z,27.8
2017-08-04T10:02:13.042Z,28.04
2017-08-04T10:03:23.907Z,28.05
2017-08-04T10:04:34.405Z,27.92
2017-08-04T10:05:44.985Z,27.72
2017-08-04T10:06:55.526Z,27.63
2017-08-04T10:08:06.027Z,27.37
2017-08-04T10:09:16.760Z,27.12
2017-08-04T10:10:27.248Z,27.04
2017-08-04T10:11:37.738Z,26.98
2017-08-04T10:12:48.217Z,26.75
2017-08-04T10:13:58.841Z,26.92
2017-08-04T10:15:09.621Z,26.98
2017-08-04T10:16:20.122Z,26.98
2017-08-04T10:17:30.613Z,26.73
2017-08-04T10:18:41.130Z,26.29
2017-08-04T10:19:51.721Z,26.31
2017-08-04T10:21:02.671Z,26.43
2017-08-04T10:22:13.214Z,26.56
2017-08-04T10:23:23.939Z,26.71
2017-08-04T10:24:34.431Z,26.75
2017-08-04T10:25:44.659Z,26.85
2017-08-04T10:26:55.416Z,27.07
2017-08-04T10:28:05.964Z,27.03
2017-08-04T10:29:16.529Z,26.93
2017-08-04T10:30:27.037Z,26.96
2017-08-04T10:31:37.769Z,26.78
2017-08-04T10:32:48.518Z,26.68
2017-08-04T10:33:59.018Z,26.34
2017-08-04T10:35:09.552Z,26.03
2017-08-04T10:36:20.170Z,25.78
2017-08-04T10:37:31.655Z,25.69
2017-08-04T10:38:42.477Z,25.59
2017-08-04T10:39:52.979Z,25.62
2017-08-04T10:41:03.484Z,25.44
2017-08-04T10:42:13.978Z,25.36
2017-08-04T10:43:24.462Z,25.34
2017-08-04T10:44:35.246Z,25.62
2017-08-04T10:45:45.796Z,25.97
2017-08-04T10:46:56.354Z,26.29
2017-08-04T10:48:06.924Z,26.53
2017-08-04T10:49:17.159Z,26.77
2017-08-04T10:50:27.908Z,27.11
2017-08-04T10:51:38.429Z,27.11
2017-08-04T10:52:48.956Z,27.08
2017-08-04T10:53:59.260Z,26.82
2017-08-04T10:55:09.812Z,26.61
2017-08-04T10:56:20.543Z,26.67
2017-08-04T10:57:31.322Z,26.73
2017-08-04T10:58:42.048Z,26.58
2017-08-04T10:59:52.545Z,26.46
2017-08-04T11:01:02.735Z,26.34
2017-08-04T11:02:13.467Z,26.25
2017-08-04T11:03:24.016Z,26.29
2017-08-04T11:04:34.534Z,26.36
2017-08-04T11:05:45.163Z,26.24
2017-08-04T11:06:55.655Z,26.11
2017-08-04T11:08:06.521Z,25.94
2017-08-04T11:09:17.028Z,25.9
2017-08-04T11:10:27.547Z,25.76
2017-08-04T11:11:39.069Z,25.69
2017-08-04T11:12:49.161Z,25.77
2017-08-04T11:14:00.007Z,25.99
2017-08-04T11:15:10.298Z,26.11
2017-08-04T11:16:20.789Z,26.16
2017-08-04T11:17:31.320Z,26.16
2017-08-04T11:18:41.836Z,26.24
2017-08-04T11:19:52.630Z,26.31
2017-08-04T11:21:03.150Z,26.51
2017-08-04T11:22:13.727Z,26.64
2017-08-04T11:23:24.255Z,26.68
2017-08-04T11:24:34.112Z,26.59
2017-08-04T11:25:44.847Z,26.52
2017-08-04T11:26:55.576Z,26.48
2017-08-04T11:28:06.336Z,26.43
2017-08-04T11:29:16.819Z,26.31
2017-08-04T11:30:27.440Z,26.27
2017-08-04T11:31:38.191Z,26.16
2017-08-04T11:32:48.706Z,26.06
2017-08-04T11:33:59.251Z,25.88
2017-08-04T11:35:09.788Z,25.77
2017-08-04T11:36:20.319Z,25.77
2017-08-04T11:37:31.293Z,25.65
2017-08-04T11:38:41.769Z,25.73
2017-08-04T11:39:52.492Z,25.71
2017-08-04T11:41:03.124Z,25.81
2017-08-04T11:42:13.636Z,25.74
2017-08-04T11:43:24.372Z,25.65
2017-08-04T11:44:34.420Z,25.65
2017-08-04T11:45:45.122Z,25.56
2017-08-04T11:46:55.644Z,25.32
2017-08-04T11:48:06.154Z,25.17
2017-08-04T11:49:17.184Z,25.07
2017-08-04T11:50:27.754Z,24.88
2017-08-04T11:51:38.293Z,24.72
2017-08-04T11:52:48.773Z,24.62
2017-08-04T11:53:59.101Z,24.63
2017-08-04T11:55:09.970Z,24.5
2017-08-04T11:56:20.670Z,24.31
2017-08-04T11:57:31.151Z,24.32
2017-08-04T11:58:41.728Z,24.32
2017-08-04T11:59:52.258Z,24.22
2017-08-04T12:01:02.664Z,24.35
2017-08-04T12:02:13.355Z,24.5
2017-08-04T12:03:23.579Z,24.72
2017-08-04T12:04:34.074Z,24.85
2017-08-04T12:05:44.570Z,24.97
2017-08-04T12:06:55.339Z,25.22
2017-08-04T12:08:05.840Z,25.49
2017-08-04T12:09:16.343Z,25.74
2017-08-04T12:10:26.541Z,25.97
2017-08-04T12:11:37.341Z,26.25
2017-08-04T12:12:48.129Z,26.4
2017-08-04T12:13:58.613Z,26.58
2017-08-04T12:15:09.090Z,26.89
2017-08-04T12:16:19.690Z,26.93
2017-08-04T12:17:30.243Z,27.1
2017-08-04T12:18:41.013Z,27.2
2017-08-04T12:19:51.525Z,27.43
2017-08-04T12:21:02.099Z,27.5
2017-08-04T12:22:12.678Z,27.72
2017-08-04T12:23:23.187Z,27.67
2017-08-04T12:24:33.924Z,27.68
2017-08-04T12:25:44.458Z,27.7
2017-08-04T12:26:55.009Z,27.83
2017-08-04T12:28:05.191Z,27.94
2017-08-04T12:29:15.720Z,27.89
2017-08-04T12:30:26.448Z,28.04
2017-08-04T12:31:36.958Z,28.13
2017-08-04T12:32:47.576Z,28.24
2017-08-04T12:33:58.097Z,28.14
2017-08-04T12:35:08.583Z,28.35
2017-08-04T12:36:19.366Z,28.32
2017-08-04T12:37:29.874Z,28.38
2017-08-04T12:38:40.444Z,28.34
2017-08-04T12:39:51.280Z,28.23
2017-08-04T12:41:01.859Z,28.16
2017-08-04T12:43:37.764Z,27.97
2017-08-04T12:44:48.273Z,27.79
2017-08-04T12:45:58.932Z,27.7
2017-08-04T12:47:09.763Z,27.46
2017-08-04T12:48:20.466Z,27.28
2017-08-04T12:49:30.973Z,27.14
2017-08-04T12:50:41.488Z,27.07
2017-08-04T12:51:52.001Z,27.03
2017-08-04T12:53:02.742Z,26.99
2017-08-04T12:54:12.938Z,26.9
2017-08-04T12:55:23.527Z,26.62
2017-08-04T12:56:34.064Z,26.39
2017-08-04T12:57:44.575Z,26.14
2017-08-04T12:58:55.321Z,26
2017-08-04T13:00:05.858Z,25.94
2017-08-04T13:01:16.384Z,25.81
2017-08-04T13:02:26.981Z,25.77
2017-08-04T13:03:37.556Z,25.87
2017-08-04T13:04:48.323Z,25.87
2017-08-04T13:05:58.841Z,25.81
2017-08-04T13:07:09.423Z,25.73
2017-08-04T13:08:19.926Z,25.77
2017-08-04T13:09:30.496Z,25.73
2017-08-04T13:10:40.941Z,25.78
2017-08-04T13:11:51.436Z,25.82
2017-08-04T13:13:02.095Z,25.81
2017-08-04T13:14:12.614Z,25.82
2017-08-04T13:15:23.159Z,25.71
2017-08-04T13:16:33.972Z,25.64
2017-08-04T13:17:44.598Z,25.54
2017-08-04T13:18:55.101Z,25.39
2017-08-04T13:20:05.308Z,25.27
2017-08-04T13:21:15.889Z,25.25
2017-08-04T13:22:26.689Z,25.13
2017-08-04T13:23:37.215Z,25.09
2017-08-04T13:24:47.299Z,25.22
2017-08-04T13:25:57.953Z,25.1
2017-08-04T13:27:08.469Z,25.05
2017-08-04T13:28:19.214Z,25.05
2017-08-04T13:29:29.754Z,25.12
2017-08-04T13:30:40.350Z,25.09
2017-08-04T13:31:50.843Z,25.19
2017-08-04T13:33:01.357Z,25.17
2017-08-04T13:34:12.144Z,25.18
2017-08-04T13:35:22.685Z,25.29
2017-08-04T13:36:33.221Z,25.29
2017-08-04T13:37:43.750Z,25.25
2017-08-04T13:38:53.981Z,25.21
2017-08-04T13:40:04.817Z,25.29
2017-08-04T13:41:15.309Z,25.13
2017-08-04T13:42:25.536Z,25.07
2017-08-04T13:43:36.120Z,25.02
2017-08-04T13:44:46.884Z,24.81
2017-08-04T13:45:57.333Z,24.73
2017-08-04T13:47:07.893Z,24.62
2017-08-04T13:48:18.459Z,24.48
2017-08-04T13:49:28.989Z,24.22
2017-08-04T13:50:39.520Z,24.17
2017-08-04T13:51:50.304Z,24.06
2017-08-04T13:53:01.080Z,24.07
2017-08-04T13:54:11.171Z,24.01
2017-08-04T13:55:21.730Z,24.01
2017-08-04T13:56:32.210Z,24.06
2017-08-04T13:57:42.632Z,24.13
2017-08-04T13:58:53.209Z,24.15
2017-08-04T14:00:03.777Z,24.12
2017-08-04T14:01:14.329Z,24.2
2017-08-04T14:02:24.814Z,24.13
2017-08-04T14:03:35.596Z,24.15
2017-08-04T14:04:46.089Z,24.06
2017-08-04T14:05:56.557Z,24.05
2017-08-04T14:07:07.063Z,24.02
2017-08-04T14:08:17.266Z,23.97
2017-08-04T14:09:28.068Z,23.88
2017-08-04T14:10:38.579Z,23.97
2017-08-04T14:11:48.756Z,23.83
2017-08-04T14:12:59.229Z,23.75
2017-08-04T14:14:09.727Z,23.8
2017-08-04T14:15:20.465Z,23.75
2017-08-04T14:16:30.960Z,23.75
2017-08-04T14:17:41.516Z,23.77
2017-08-04T14:18:52.131Z,23.68
2017-08-04T14:20:02.644Z,23.73
2017-08-04T14:21:13.462Z,23.7
2017-08-04T14:22:23.715Z,23.64
2017-08-04T14:23:33.921Z,23.51
2017-08-04T14:24:44.122Z,23.57
2017-08-04T14:25:54.592Z,23.51
2017-08-04T14:27:05.030Z,23.46
2017-08-04T14:28:15.573Z,23.28
2017-08-04T14:29:26.076Z,23.38
2017-08-04T14:30:36.553Z,23.35
2017-08-04T14:31:47.102Z,23.38
2017-08-04T14:32:57.886Z,23.35
2017-08-04T14:34:08.370Z,23.35
2017-08-04T14:35:18.886Z,23.38
2017-08-04T14:36:29.399Z,23.27
2017-08-04T14:37:39.628Z,23.21
2017-08-04T14:38:50.163Z,23.28
2017-08-04T14:40:00.672Z,23.42
2017-08-04T14:41:11.154Z,23.39
2017-08-04T14:42:21.701Z,23.45
2017-08-04T14:43:32.398Z,23.48
2017-08-04T14:44:42.892Z,23.5
2017-08-04T14:45:53.593Z,23.46
2017-08-04T14:47:04.101Z,23.5
2017-08-04T14:48:14.597Z,23.43
2017-08-04T14:49:25.091Z,23.39
2017-08-04T14:50:36.092Z,23.42
2017-08-04T14:51:46.756Z,23.39
2017-08-04T14:52:57.328Z,23.32
2017-08-04T14:54:07.839Z,23.35
2017-08-04T14:55:18.349Z,23.21
2017-08-04T14:56:28.777Z,23.28
2017-08-04T14:57:39.357Z,23.18
2017-08-04T14:58:49.643Z,23.14
2017-08-04T15:00:00.148Z,23.14
2017-08-04T15:01:10.616Z,23.08
2017-08-04T15:02:21.349Z,23.01
2017-08-04T15:03:31.881Z,22.99
2017-08-04T15:04:42.467Z,23.03
2017-08-04T15:05:52.389Z,23.01
2017-08-04T15:07:02.851Z,23.05
2017-08-04T15:08:12.947Z,23.16
2017-08-04T15:09:23.550Z,23.03
2017-08-04T15:10:34.229Z,22.99
2017-08-04T15:11:44.711Z,23.08
2017-08-04T15:12:55.371Z,23.06